createdAt,value
2022-10-20T06:33:54.813Z,2.13
2022-10-20T06:36:41.910Z,1.83
2022-10-20T06:39:27.457Z,1.90
2022-10-20T06:42:12.938Z,1.85
2022-10-20T06:44:59.168Z,2.92
2022-10-20T06:47:45.265Z,1.63
2022-10-20T06:50:30.629Z,1.85
2022-10-20T06:53:16.267Z,1.70
2022-10-20T06:56:08.107Z,2.13
2022-10-20T06:58:55.771Z,2.13
2022-10-20T07:01:42.203Z,1.50
2022-10-20T07:04:28.058Z,2.10
2022-10-20T07:07:13.399Z,1.40
2022-10-20T07:09:59.225Z,1.67
2022-10-20T07:12:44.760Z,1.80
2022-10-20T07:15:30.133Z,1.73
2022-10-20T07:18:15.718Z,1.83
2022-10-20T07:21:04.130Z,1.35
2022-10-20T07:23:50.636Z,1.20
2022-10-20T07:26:39.214Z,1.60
2022-10-20T07:29:25.008Z,1.27
2022-10-20T07:32:10.580Z,1.48
2022-10-20T07:34:56.052Z,1.98
2022-10-20T07:37:41.415Z,1.20
2022-10-20T07:40:27.117Z,1.20
2022-10-20T07:43:12.776Z,1.33
2022-10-20T07:45:58.121Z,0.98
2022-10-20T07:48:43.890Z,0.90
2022-10-20T07:51:30.946Z,0.80
2022-10-20T07:54:16.860Z,1.37
2022-10-20T07:57:02.701Z,1.13
2022-10-20T07:59:48.025Z,0.90
2022-10-20T08:02:33.517Z,1.20
2022-10-20T08:05:19.151Z,0.83
2022-10-20T08:08:04.970Z,0.90
2022-10-20T08:10:51.018Z,0.80
2022-10-20T08:13:36.570Z,1.20
2022-10-20T08:16:31.087Z,0.77
2022-10-20T08:19:24.863Z,0.90
2022-10-20T08:22:10.738Z,0.75
2022-10-20T08:24:56.363Z,0.70
2022-10-20T08:27:42.139Z,0.57
2022-10-20T08:30:27.887Z,1.10
2022-10-20T08:33:13.686Z,1.10
2022-10-20T08:36:04.422Z,0.80
2022-10-20T08:38:49.860Z,0.80
2022-10-20T08:42:07.447Z,1.10
2022-10-20T08:44:47.304Z,1.10
2022-10-20T08:47:37.342Z,1.00
2022-10-20T08:50:27.578Z,0.90
2022-10-20T08:53:13.154Z,1.10
2022-10-20T08:55:59.085Z,0.82
2022-10-20T08:58:46.366Z,0.90
2022-10-20T09:01:36.106Z,0.70
2022-10-20T09:04:37.136Z,0.90
2022-10-20T09:07:35.841Z,1.08
2022-10-20T09:10:31.600Z,1.10
2022-10-20T09:13:24.898Z,1.10
2022-10-20T09:16:33.426Z,0.80
2022-10-20T09:19:28.162Z,1.10
2022-10-20T09:22:14.655Z,0.90
2022-10-20T09:25:00.439Z,1.30
2022-10-20T09:27:46.320Z,0.90
2022-10-20T09:30:34.396Z,0.90
2022-10-20T09:33:34.244Z,1.20
2022-10-20T09:36:27.669Z,1.20
2022-10-20T09:39:27.030Z,1.10
2022-10-20T09:42:16.608Z,1.23
2022-10-20T09:45:06.962Z,1.17
2022-10-20T09:47:56.391Z,0.80
2022-10-20T09:50:48.013Z,0.80
2022-10-20T09:53:39.932Z,0.83
2022-10-20T09:56:25.545Z,0.98
2022-10-20T09:59:19.735Z,1.17
2022-10-20T10:02:29.872Z,1.20
2022-10-20T11:10:39.998Z,1.30
2022-10-20T14:35:11.724Z,1.50
2022-10-20T14:37:44.845Z,1.38
2022-10-20T14:40:35.499Z,1.40
2022-10-20T14:43:53.553Z,1.60
2022-10-20T14:46:48.186Z,1.40
2022-10-20T14:50:44.231Z,1.45
2022-10-20T14:53:29.517Z,1.63
2022-10-20T14:58:03.376Z,1.67
2022-10-20T14:59:47.567Z,1.52
2022-10-20T15:03:32.183Z,1.60
2022-10-20T15:06:23.617Z,1.58
2022-10-20T15:10:27.461Z,1.63
2022-10-20T15:15:58.626Z,1.38
2022-10-20T15:18:58.131Z,1.40
2022-10-20T15:25:03.392Z,2.00
2022-10-20T15:27:50.537Z,1.42
2022-10-20T15:30:36.374Z,1.85
2022-10-20T15:33:36.440Z,1.35
2022-10-20T15:36:31.515Z,1.60
2022-10-20T15:39:20.601Z,1.40
2022-10-20T15:42:22.170Z,1.52
2022-10-20T15:45:22.699Z,1.50
2022-10-20T15:48:23.541Z,1.63
2022-10-20T15:51:39.043Z,1.42
2022-10-20T15:54:25.082Z,1.60
2022-10-20T15:57:24.737Z,1.13
2022-10-20T16:00:12.387Z,1.92
2022-10-20T16:03:08.688Z,1.45
2022-10-20T16:05:55.874Z,1.70
2022-10-20T16:08:51.926Z,1.40
2022-10-20T16:11:42.513Z,1.50
2022-10-20T16:14:28.167Z,1.40
2022-10-20T16:17:13.732Z,1.33
2022-10-20T16:19:59.289Z,1.45
2022-10-20T16:22:44.854Z,1.27
2022-10-20T16:25:30.321Z,1.45
2022-10-20T16:28:15.853Z,1.33
2022-10-20T16:31:06.758Z,1.52
2022-10-20T16:33:52.179Z,1.40
2022-10-20T16:36:38.391Z,1.40
2022-10-20T16:39:24.173Z,1.50
2022-10-20T16:42:09.640Z,1.35
2022-10-20T16:44:55.152Z,1.30
2022-10-20T16:47:40.896Z,1.40
2022-10-20T16:50:26.241Z,1.60
2022-10-20T16:53:11.645Z,1.20
2022-10-20T16:55:57.499Z,1.33
2022-10-20T16:58:43.081Z,1.20
2022-10-20T17:01:28.744Z,1.48
2022-10-20T17:04:14.598Z,1.40
2022-10-20T17:07:00.168Z,1.70
2022-10-20T17:09:45.911Z,1.30
2022-10-20T17:12:31.422Z,1.20
2022-10-20T17:15:16.909Z,1.30
2022-10-20T17:18:02.337Z,1.40
2022-10-20T17:20:53.115Z,1.37
2022-10-20T17:23:42.616Z,1.55
2022-10-20T17:26:32.597Z,1.23
2022-10-20T17:29:21.043Z,1.53
2022-10-20T17:32:10.086Z,1.48
2022-10-20T17:34:57.759Z,1.33
2022-10-20T17:37:43.418Z,1.23
2022-10-20T17:40:28.859Z,1.65
2022-10-20T17:43:14.969Z,1.30
2022-10-20T17:46:03.547Z,1.40
2022-10-20T17:48:49.272Z,1.20
2022-10-20T17:51:35.216Z,1.40
2022-10-20T17:54:22.233Z,1.30
2022-10-20T17:57:07.988Z,1.15
2022-10-20T17:59:56.362Z,1.45
2022-10-20T18:02:51.390Z,1.10
2022-10-20T18:05:37.162Z,1.40
2022-10-20T18:08:22.542Z,1.40
2022-10-20T18:11:11.864Z,1.23
2022-10-20T18:13:59.919Z,1.55
2022-10-20T18:16:45.575Z,1.40
2022-10-20T18:19:31.407Z,1.20
2022-10-20T18:22:16.795Z,1.40
2022-10-20T18:25:02.274Z,1.15
2022-10-20T18:27:48.058Z,1.30
2022-10-20T18:30:37.335Z,1.30
2022-10-20T18:33:23.071Z,1.45
2022-10-20T18:36:11.293Z,1.70
2022-10-20T18:38:57.265Z,1.23
2022-10-20T18:41:43.854Z,1.70
2022-10-20T18:47:20.786Z,1.52
2022-10-20T18:50:06.415Z,1.60
2022-10-20T18:52:51.923Z,1.17
2022-10-20T18:55:37.832Z,1.80
2022-10-20T18:58:23.248Z,1.42
2022-10-20T19:01:14.283Z,1.60
2022-10-20T19:04:00.472Z,1.50
2022-10-20T19:06:47.859Z,1.45
2022-10-20T19:09:33.445Z,1.70
2022-10-20T19:12:18.949Z,2.17
2022-10-20T19:15:04.642Z,1.20
2022-10-20T19:17:50.338Z,1.50
2022-10-20T19:20:35.931Z,1.60
2022-10-20T19:23:22.033Z,1.60
2022-10-20T19:26:17.262Z,1.50
2022-10-20T19:29:08.692Z,1.25
2022-10-20T19:31:59.171Z,1.40
2022-10-20T19:34:45.271Z,1.50
2022-10-20T19:37:30.888Z,1.63
2022-10-20T19:40:16.344Z,1.40
2022-10-20T19:43:01.787Z,1.52
2022-10-20T19:45:49.172Z,1.70
2022-10-20T19:48:35.823Z,1.70
2022-10-20T19:51:21.835Z,1.48
2022-10-20T19:54:08.410Z,1.40
2022-10-20T19:56:54.292Z,1.60
2022-10-20T19:59:39.865Z,1.50
2022-10-20T20:02:25.783Z,1.77
2022-10-20T20:05:11.401Z,1.98
2022-10-20T20:07:56.839Z,1.80
2022-10-20T20:10:51.098Z,1.48
2022-10-20T20:13:36.902Z,1.60
2022-10-20T20:16:22.677Z,1.45
2022-10-20T20:19:08.487Z,1.80
2022-10-20T20:21:55.312Z,1.77
2022-10-20T20:24:41.036Z,1.60
2022-10-20T20:27:26.507Z,1.80
2022-10-20T20:30:12.261Z,1.90
2022-10-20T20:32:57.791Z,1.98
2022-10-20T20:35:43.334Z,1.57
2022-10-20T20:38:31.355Z,1.83
2022-10-20T20:41:18.305Z,1.77
2022-10-20T20:44:08.064Z,1.75
2022-10-20T20:46:54.395Z,1.85
2022-10-20T20:49:39.785Z,1.50
2022-10-20T20:52:26.091Z,1.70
2022-10-20T20:55:11.804Z,1.80
2022-10-20T20:57:57.123Z,1.70
2022-10-20T21:00:42.841Z,1.77
2022-10-20T21:03:29.268Z,1.80
2022-10-20T21:06:17.042Z,1.83
2022-10-20T21:09:11.195Z,2.00
2022-10-20T21:11:56.979Z,1.90
2022-10-20T21:14:42.532Z,2.15
2022-10-20T21:17:27.871Z,1.77
2022-10-20T21:20:13.299Z,1.95
2022-10-20T21:23:01.208Z,2.10
2022-10-20T21:25:49.716Z,1.92
2022-10-20T21:28:38.795Z,1.75
2022-10-20T21:31:26.165Z,1.80
2022-10-20T21:34:12.126Z,2.15
2022-10-20T21:36:57.936Z,1.80
2022-10-20T21:39:43.762Z,1.77
2022-10-20T21:42:29.019Z,1.83
2022-10-20T21:45:19.024Z,1.80
2022-10-20T21:48:05.373Z,2.13
2022-10-20T21:50:50.998Z,2.10
2022-10-20T21:53:36.986Z,2.40
2022-10-20T21:56:22.790Z,2.15
2022-10-20T21:59:15.220Z,2.20
2022-10-20T22:02:02.084Z,1.88
2022-10-20T22:04:47.865Z,2.17
2022-10-20T22:07:33.615Z,1.98
2022-10-20T22:10:18.936Z,1.92
2022-10-20T22:13:05.327Z,2.00
2022-10-20T22:15:50.940Z,2.22
2022-10-20T22:18:36.843Z,2.45
2022-10-20T22:21:24.945Z,2.20
2022-10-20T22:24:11.150Z,1.85
2022-10-20T22:26:56.706Z,2.25
2022-10-20T22:29:42.365Z,2.17
2022-10-20T22:32:27.937Z,2.38
2022-10-20T22:35:13.674Z,2.40
2022-10-20T22:37:59.417Z,1.83
2022-10-20T22:40:45.020Z,2.00
2022-10-20T22:43:31.383Z,2.08
2022-10-20T22:46:18.871Z,2.65
2022-10-20T22:49:07.422Z,1.90
2022-10-20T22:51:53.134Z,2.10
2022-10-20T22:54:38.744Z,1.83
2022-10-20T22:57:24.219Z,1.98
2022-10-20T23:00:13.577Z,2.20
2022-10-20T23:02:59.190Z,2.13
2022-10-20T23:05:44.903Z,2.25
2022-10-20T23:08:32.057Z,1.85
2022-10-20T23:11:19.151Z,2.47
2022-10-20T23:14:04.638Z,2.28
2022-10-20T23:16:50.214Z,1.95
2022-10-20T23:19:35.825Z,2.03
2022-10-20T23:22:24.243Z,2.00
2022-10-20T23:25:10.053Z,2.10
2022-10-20T23:27:56.447Z,2.30
2022-10-20T23:30:41.966Z,2.25
2022-10-20T23:33:27.351Z,2.13
2022-10-20T23:36:14.252Z,2.33
2022-10-20T23:39:02.345Z,2.05
2022-10-20T23:41:47.860Z,2.20
2022-10-20T23:44:33.235Z,2.28
2022-10-20T23:47:18.859Z,2.33
2022-10-20T23:50:04.360Z,2.40
2022-10-20T23:52:49.920Z,2.03
2022-10-20T23:55:35.659Z,2.13
2022-10-20T23:58:22.614Z,2.40
